sensor_id;sensor_type;location;lat;lon;timestamp;P1;durP1;ratioP1;P2;durP2;ratioP2
438;SDS011;206;48.782;9.252;2022-10-26T00:00:24;7.67;;;5.77;;
438;SDS011;206;48.782;9.252;2022-10-26T00:02:50;6.90;;;5.03;;
438;SDS011;206;48.782;9.252;2022-10-26T00:05:17;7.67;;;4.97;;
438;SDS011;206;48.782;9.252;2022-10-26T00:07:42;8.10;;;5.50;;
438;SDS011;206;48.782;9.252;2022-10-26T00:10:08;12.23;;;4.27;;
438;SDS011;206;48.782;9.252;2022-10-26T00:12:34;9.23;;;4.53;;
438;SDS011;206;48.782;9.252;2022-10-26T00:14:59;11.03;;;4.77;;
438;SDS011;206;48.782;9.252;2022-10-26T00:17:25;4.70;;;3.97;;
438;SDS011;206;48.782;9.252;2022-10-26T00:19:51;4.53;;;3.87;;
438;SDS011;206;48.782;9.252;2022-10-26T00:22:16;12.73;;;4.50;;
438;SDS011;206;48.782;9.252;2022-10-26T00:24:42;7.00;;;4.37;;
438;SDS011;206;48.782;9.252;2022-10-26T00:27:07;7.63;;;4.90;;
438;SDS011;206;48.782;9.252;2022-10-26T00:29:33;10.83;;;5.40;;
438;SDS011;206;48.782;9.252;2022-10-26T00:31:58;7.50;;;4.47;;
438;SDS011;206;48.782;9.252;2022-10-26T00:34:24;7.00;;;4.60;;
438;SDS011;206;48.782;9.252;2022-10-26T00:36:50;5.10;;;3.57;;
438;SDS011;206;48.782;9.252;2022-10-26T00:39:15;6.77;;;4.47;;
438;SDS011;206;48.782;9.252;2022-10-26T00:41:41;2.87;;;2.70;;
438;SDS011;206;48.782;9.252;2022-10-26T00:47:14;7.37;;;3.33;;
438;SDS011;206;48.782;9.252;2022-10-26T00:49:43;8.60;;;4.30;;
438;SDS011;206;48.782;9.252;2022-10-26T00:52:12;4.77;;;3.50;;
438;SDS011;206;48.782;9.252;2022-10-26T00:54:39;10.67;;;4.47;;
438;SDS011;206;48.782;9.252;2022-10-26T00:57:05;5.80;;;3.67;;
438;SDS011;206;48.782;9.252;2022-10-26T00:59:31;6.87;;;5.07;;
438;SDS011;206;48.782;9.252;2022-10-26T01:01:57;7.40;;;5.00;;
438;SDS011;206;48.782;9.252;2022-10-26T01:04:23;7.40;;;4.27;;
438;SDS011;206;48.782;9.252;2022-10-26T01:06:49;7.30;;;4.03;;
438;SDS011;206;48.782;9.252;2022-10-26T01:09:17;6.17;;;4.47;;
438;SDS011;206;48.782;9.252;2022-10-26T01:11:44;6.43;;;4.63;;
438;SDS011;206;48.782;9.252;2022-10-26T01:14:10;9.30;;;5.03;;
438;SDS011;206;48.782;9.252;2022-10-26T01:19:41;5.13;;;4.30;;
438;SDS011;206;48.782;9.252;2022-10-26T01:22:53;4.27;;;3.47;;
438;SDS011;206;48.782;9.252;2022-10-26T01:28:38;5.33;;;3.73;;
438;SDS011;206;48.782;9.252;2022-10-26T01:31:08;4.13;;;3.07;;
438;SDS011;206;48.782;9.252;2022-10-26T01:33:41;5.20;;;2.80;;
438;SDS011;206;48.782;9.252;2022-10-26T01:39:15;7.07;;;3.50;;
438;SDS011;206;48.782;9.252;2022-10-26T01:41:51;7.17;;;3.77;;
438;SDS011;206;48.782;9.252;2022-10-26T01:44:23;5.77;;;3.37;;
438;SDS011;206;48.782;9.252;2022-10-26T01:47:06;6.00;;;3.60;;
438;SDS011;206;48.782;9.252;2022-10-26T01:49:37;10.40;;;3.43;;
438;SDS011;206;48.782;9.252;2022-10-26T01:52:08;8.40;;;5.40;;
438;SDS011;206;48.782;9.252;2022-10-26T01:54:34;8.07;;;5.37;;
438;SDS011;206;48.782;9.252;2022-10-26T01:57:01;13.20;;;6.00;;
438;SDS011;206;48.782;9.252;2022-10-26T01:59:36;13.03;;;5.63;;
438;SDS011;206;48.782;9.252;2022-10-26T02:10:39;7.57;;;6.27;;
438;SDS011;206;48.782;9.252;2022-10-26T02:13:22;14.03;;;7.10;;
438;SDS011;206;48.782;9.252;2022-10-26T02:18:54;14.70;;;8.80;;
438;SDS011;206;48.782;9.252;2022-10-26T02:21:36;10.90;;;7.20;;
438;SDS011;206;48.782;9.252;2022-10-26T02:24:09;9.97;;;7.47;;
438;SDS011;206;48.782;9.252;2022-10-26T02:26:36;8.77;;;7.33;;
438;SDS011;206;48.782;9.252;2022-10-26T02:29:06;7.03;;;6.03;;
438;SDS011;206;48.782;9.252;2022-10-26T02:31:35;8.53;;;5.03;;
438;SDS011;206;48.782;9.252;2022-10-26T02:34:03;9.53;;;5.80;;
438;SDS011;206;48.782;9.252;2022-10-26T02:36:33;10.73;;;6.53;;
438;SDS011;206;48.782;9.252;2022-10-26T02:39:03;10.37;;;5.50;;
438;SDS011;206;48.782;9.252;2022-10-26T02:41:30;8.07;;;6.67;;
438;SDS011;206;48.782;9.252;2022-10-26T02:46:51;8.53;;;6.30;;
438;SDS011;206;48.782;9.252;2022-10-26T02:49:18;11.37;;;6.90;;
438;SDS011;206;48.782;9.252;2022-10-26T02:56:49;12.23;;;6.50;;
438;SDS011;206;48.782;9.252;2022-10-26T02:59:19;7.60;;;5.50;;
438;SDS011;206;48.782;9.252;2022-10-26T03:01:46;8.67;;;5.37;;
438;SDS011;206;48.782;9.252;2022-10-26T03:04:14;7.13;;;4.50;;
438;SDS011;206;48.782;9.252;2022-10-26T03:06:40;6.47;;;5.53;;
438;SDS011;206;48.782;9.252;2022-10-26T03:09:05;11.53;;;6.20;;
438;SDS011;206;48.782;9.252;2022-10-26T03:11:31;11.80;;;6.83;;
438;SDS011;206;48.782;9.252;2022-10-26T03:13:56;10.63;;;5.53;;
438;SDS011;206;48.782;9.252;2022-10-26T03:16:22;10.13;;;5.90;;
438;SDS011;206;48.782;9.252;2022-10-26T03:18:48;9.10;;;6.57;;
438;SDS011;206;48.782;9.252;2022-10-26T03:21:13;13.63;;;6.60;;
438;SDS011;206;48.782;9.252;2022-10-26T03:23:39;9.63;;;5.77;;
438;SDS011;206;48.782;9.252;2022-10-26T03:26:05;9.97;;;7.90;;
438;SDS011;206;48.782;9.252;2022-10-26T03:28:31;9.10;;;6.60;;
438;SDS011;206;48.782;9.252;2022-10-26T03:30:57;7.80;;;6.57;;
438;SDS011;206;48.782;9.252;2022-10-26T03:33:22;8.97;;;5.60;;
438;SDS011;206;48.782;9.252;2022-10-26T03:35:53;10.50;;;5.80;;
438;SDS011;206;48.782;9.252;2022-10-26T03:38:20;9.07;;;6.90;;
438;SDS011;206;48.782;9.252;2022-10-26T03:40:46;5.67;;;4.90;;
438;SDS011;206;48.782;9.252;2022-10-26T03:43:12;9.30;;;5.10;;
438;SDS011;206;48.782;9.252;2022-10-26T03:45:38;13.30;;;4.50;;
438;SDS011;206;48.782;9.252;2022-10-26T03:48:03;8.93;;;4.40;;
438;SDS011;206;48.782;9.252;2022-10-26T03:50:29;7.17;;;3.77;;
438;SDS011;206;48.782;9.252;2022-10-26T03:52:55;8.57;;;4.30;;
438;SDS011;206;48.782;9.252;2022-10-26T03:55:20;5.80;;;3.17;;
438;SDS011;206;48.782;9.252;2022-10-26T03:57:46;6.70;;;4.47;;
438;SDS011;206;48.782;9.252;2022-10-26T04:00:13;9.33;;;4.30;;
438;SDS011;206;48.782;9.252;2022-10-26T04:02:40;6.03;;;4.40;;
438;SDS011;206;48.782;9.252;2022-10-26T04:05:07;11.37;;;4.33;;
438;SDS011;206;48.782;9.252;2022-10-26T04:07:33;7.20;;;3.77;;
438;SDS011;206;48.782;9.252;2022-10-26T04:09:58;4.53;;;3.27;;
438;SDS011;206;48.782;9.252;2022-10-26T04:12:24;2.93;;;2.50;;
438;SDS011;206;48.782;9.252;2022-10-26T04:14:49;4.63;;;2.90;;
438;SDS011;206;48.782;9.252;2022-10-26T04:17:15;4.33;;;3.17;;
438;SDS011;206;48.782;9.252;2022-10-26T04:19:41;3.97;;;2.80;;
438;SDS011;206;48.782;9.252;2022-10-26T04:22:06;5.20;;;3.43;;
438;SDS011;206;48.782;9.252;2022-10-26T04:24:32;3.73;;;3.23;;
438;SDS011;206;48.782;9.252;2022-10-26T04:26:57;6.00;;;3.50;;
438;SDS011;206;48.782;9.252;2022-10-26T04:29:23;5.57;;;4.30;;
438;SDS011;206;48.782;9.252;2022-10-26T04:31:49;6.87;;;4.80;;
438;SDS011;206;48.782;9.252;2022-10-26T04:34:14;10.77;;;4.93;;
438;SDS011;206;48.782;9.252;2022-10-26T04:36:40;5.50;;;3.93;;
438;SDS011;206;48.782;9.252;2022-10-26T04:39:05;5.40;;;4.60;;
438;SDS011;206;48.782;9.252;2022-10-26T04:41:31;6.80;;;4.80;;
438;SDS011;206;48.782;9.252;2022-10-26T04:43:57;6.43;;;5.10;;
438;SDS011;206;48.782;9.252;2022-10-26T04:46:22;7.00;;;4.43;;
438;SDS011;206;48.782;9.252;2022-10-26T04:48:48;5.33;;;4.87;;
438;SDS011;206;48.782;9.252;2022-10-26T04:51:13;7.10;;;5.07;;
438;SDS011;206;48.782;9.252;2022-10-26T04:53:39;7.73;;;4.73;;
438;SDS011;206;48.782;9.252;2022-10-26T04:56:04;4.80;;;3.50;;
438;SDS011;206;48.782;9.252;2022-10-26T04:58:30;5.40;;;3.53;;
438;SDS011;206;48.782;9.252;2022-10-26T05:00:56;6.40;;;3.87;;
438;SDS011;206;48.782;9.252;2022-10-26T05:03:21;5.10;;;3.43;;
438;SDS011;206;48.782;9.252;2022-10-26T05:05:47;4.87;;;3.50;;
438;SDS011;206;48.782;9.252;2022-10-26T05:08:13;5.20;;;4.00;;
438;SDS011;206;48.782;9.252;2022-10-26T05:10:39;7.67;;;5.03;;
438;SDS011;206;48.782;9.252;2022-10-26T05:13:05;10.10;;;6.90;;
438;SDS011;206;48.782;9.252;2022-10-26T05:15:31;11.53;;;5.83;;
438;SDS011;206;48.782;9.252;2022-10-26T05:17:58;9.40;;;5.67;;
438;SDS011;206;48.782;9.252;2022-10-26T05:20:26;7.33;;;5.30;;
438;SDS011;206;48.782;9.252;2022-10-26T05:22:55;9.63;;;5.00;;
438;SDS011;206;48.782;9.252;2022-10-26T05:25:21;8.43;;;4.30;;
438;SDS011;206;48.782;9.252;2022-10-26T05:27:47;6.37;;;4.23;;
438;SDS011;206;48.782;9.252;2022-10-26T05:30:13;6.10;;;4.20;;
438;SDS011;206;48.782;9.252;2022-10-26T05:32:38;9.43;;;3.60;;
438;SDS011;206;48.782;9.252;2022-10-26T05:35:04;8.20;;;4.70;;
438;SDS011;206;48.782;9.252;2022-10-26T05:37:30;5.97;;;4.40;;
438;SDS011;206;48.782;9.252;2022-10-26T05:39:55;8.43;;;4.80;;
438;SDS011;206;48.782;9.252;2022-10-26T05:42:21;6.60;;;5.30;;
438;SDS011;206;48.782;9.252;2022-10-26T05:44:47;9.50;;;4.30;;
438;SDS011;206;48.782;9.252;2022-10-26T05:47:12;6.10;;;4.00;;
438;SDS011;206;48.782;9.252;2022-10-26T05:49:38;3.73;;;3.20;;
438;SDS011;206;48.782;9.252;2022-10-26T05:52:03;9.00;;;3.30;;
438;SDS011;206;48.782;9.252;2022-10-26T05:54:29;4.57;;;3.30;;
438;SDS011;206;48.782;9.252;2022-10-26T05:56:55;4.70;;;3.10;;
438;SDS011;206;48.782;9.252;2022-10-26T05:59:21;6.53;;;2.77;;
438;SDS011;206;48.782;9.252;2022-10-26T06:04:37;8.47;;;4.27;;
438;SDS011;206;48.782;9.252;2022-10-26T06:07:10;3.97;;;3.17;;
438;SDS011;206;48.782;9.252;2022-10-26T06:09:38;4.70;;;3.73;;
438;SDS011;206;48.782;9.252;2022-10-26T06:12:05;6.63;;;3.80;;
438;SDS011;206;48.782;9.252;2022-10-26T06:14:32;6.83;;;5.47;;
438;SDS011;206;48.782;9.252;2022-10-26T06:31:00;10.40;;;6.00;;
438;SDS011;206;48.782;9.252;2022-10-26T06:33:26;8.00;;;4.30;;
438;SDS011;206;48.782;9.252;2022-10-26T06:35:56;8.53;;;4.33;;
438;SDS011;206;48.782;9.252;2022-10-26T06:38:37;10.50;;;5.53;;
438;SDS011;206;48.782;9.252;2022-10-26T06:41:08;6.83;;;3.90;;
438;SDS011;206;48.782;9.252;2022-10-26T06:43:38;11.07;;;5.47;;
438;SDS011;206;48.782;9.252;2022-10-26T06:48:47;9.63;;;4.47;;
438;SDS011;206;48.782;9.252;2022-10-26T06:51:14;7.13;;;4.20;;
438;SDS011;206;48.782;9.252;2022-10-26T06:53:42;7.23;;;4.40;;
438;SDS011;206;48.782;9.252;2022-10-26T06:56:17;14.27;;;6.50;;
438;SDS011;206;48.782;9.252;2022-10-26T06:58:42;12.30;;;4.70;;
438;SDS011;206;48.782;9.252;2022-10-26T07:01:09;3.43;;;3.13;;
438;SDS011;206;48.782;9.252;2022-10-26T07:03:36;11.30;;;3.87;;
438;SDS011;206;48.782;9.252;2022-10-26T07:06:02;4.23;;;3.70;;
438;SDS011;206;48.782;9.252;2022-10-26T07:08:29;5.37;;;3.40;;
438;SDS011;206;48.782;9.252;2022-10-26T07:10:55;6.17;;;3.93;;
438;SDS011;206;48.782;9.252;2022-10-26T07:13:21;10.00;;;4.17;;
438;SDS011;206;48.782;9.252;2022-10-26T07:15:46;4.93;;;3.80;;
438;SDS011;206;48.782;9.252;2022-10-26T07:18:12;7.20;;;4.20;;
438;SDS011;206;48.782;9.252;2022-10-26T07:20:39;8.27;;;4.87;;
438;SDS011;206;48.782;9.252;2022-10-26T07:23:06;7.43;;;4.80;;
438;SDS011;206;48.782;9.252;2022-10-26T07:25:34;8.47;;;4.37;;
438;SDS011;206;48.782;9.252;2022-10-26T07:28:02;6.93;;;3.27;;
438;SDS011;206;48.782;9.252;2022-10-26T07:30:29;3.83;;;3.70;;
438;SDS011;206;48.782;9.252;2022-10-26T07:33:02;5.90;;;3.40;;
438;SDS011;206;48.782;9.252;2022-10-26T07:35:31;5.50;;;3.63;;
438;SDS011;206;48.782;9.252;2022-10-26T07:37:57;8.33;;;4.40;;
438;SDS011;206;48.782;9.252;2022-10-26T07:40:24;5.57;;;3.43;;
438;SDS011;206;48.782;9.252;2022-10-26T07:42:50;8.73;;;4.30;;
438;SDS011;206;48.782;9.252;2022-10-26T07:45:16;5.90;;;4.13;;
438;SDS011;206;48.782;9.252;2022-10-26T07:47:42;6.50;;;3.70;;
438;SDS011;206;48.782;9.252;2022-10-26T07:50:10;6.00;;;3.80;;
438;SDS011;206;48.782;9.252;2022-10-26T07:52:36;5.53;;;3.87;;
438;SDS011;206;48.782;9.252;2022-10-26T07:55:03;9.87;;;4.47;;
438;SDS011;206;48.782;9.252;2022-10-26T07:57:29;3.77;;;3.10;;
438;SDS011;206;48.782;9.252;2022-10-26T07:59:55;8.00;;;3.37;;
438;SDS011;206;48.782;9.252;2022-10-26T08:02:20;5.40;;;3.13;;
438;SDS011;206;48.782;9.252;2022-10-26T08:04:46;5.23;;;3.13;;
438;SDS011;206;48.782;9.252;2022-10-26T08:07:11;6.87;;;4.10;;
438;SDS011;206;48.782;9.252;2022-10-26T08:09:37;4.53;;;3.00;;
438;SDS011;206;48.782;9.252;2022-10-26T08:12:03;4.83;;;3.70;;
438;SDS011;206;48.782;9.252;2022-10-26T08:14:28;5.23;;;4.07;;
438;SDS011;206;48.782;9.252;2022-10-26T08:16:54;8.97;;;5.17;;
438;SDS011;206;48.782;9.252;2022-10-26T08:19:19;4.60;;;3.23;;
438;SDS011;206;48.782;9.252;2022-10-26T08:21:45;7.30;;;4.00;;
438;SDS011;206;48.782;9.252;2022-10-26T08:24:11;5.83;;;3.27;;
438;SDS011;206;48.782;9.252;2022-10-26T08:26:36;6.03;;;4.00;;
438;SDS011;206;48.782;9.252;2022-10-26T08:29:02;8.40;;;4.17;;
438;SDS011;206;48.782;9.252;2022-10-26T08:31:28;7.13;;;2.93;;
438;SDS011;206;48.782;9.252;2022-10-26T08:33:54;6.23;;;3.77;;
438;SDS011;206;48.782;9.252;2022-10-26T08:36:22;4.00;;;3.30;;
438;SDS011;206;48.782;9.252;2022-10-26T08:38:49;6.23;;;4.00;;
438;SDS011;206;48.782;9.252;2022-10-26T08:41:16;6.33;;;3.60;;
438;SDS011;206;48.782;9.252;2022-10-26T08:43:47;6.83;;;4.17;;
438;SDS011;206;48.782;9.252;2022-10-26T08:46:20;5.60;;;3.00;;
438;SDS011;206;48.782;9.252;2022-10-26T08:48:58;5.97;;;2.83;;
438;SDS011;206;48.782;9.252;2022-10-26T08:51:28;6.17;;;3.33;;
438;SDS011;206;48.782;9.252;2022-10-26T08:56:46;4.40;;;3.07;;
438;SDS011;206;48.782;9.252;2022-10-26T08:59:18;3.63;;;3.27;;
438;SDS011;206;48.782;9.252;2022-10-26T09:02:11;4.70;;;3.63;;
438;SDS011;206;48.782;9.252;2022-10-26T09:04:38;12.30;;;4.50;;
438;SDS011;206;48.782;9.252;2022-10-26T09:12:44;8.03;;;4.83;;
438;SDS011;206;48.782;9.252;2022-10-26T09:23:30;13.83;;;5.17;;
438;SDS011;206;48.782;9.252;2022-10-26T09:26:02;7.00;;;5.17;;
438;SDS011;206;48.782;9.252;2022-10-26T09:28:34;6.80;;;4.03;;
438;SDS011;206;48.782;9.252;2022-10-26T09:31:02;4.50;;;3.40;;
438;SDS011;206;48.782;9.252;2022-10-26T09:33:28;7.47;;;3.40;;
438;SDS011;206;48.782;9.252;2022-10-26T09:36:12;5.87;;;2.77;;
438;SDS011;206;48.782;9.252;2022-10-26T09:41:38;6.87;;;2.90;;
438;SDS011;206;48.782;9.252;2022-10-26T09:44:10;6.30;;;3.37;;
438;SDS011;206;48.782;9.252;2022-10-26T09:49:26;7.80;;;3.00;;
438;SDS011;206;48.782;9.252;2022-10-26T09:51:59;7.40;;;2.50;;
438;SDS011;206;48.782;9.252;2022-10-26T09:54:25;8.00;;;2.70;;
438;SDS011;206;48.782;9.252;2022-10-26T09:56:52;2.93;;;2.73;;
438;SDS011;206;48.782;9.252;2022-10-26T09:59:21;6.13;;;2.80;;
438;SDS011;206;48.782;9.252;2022-10-26T10:01:48;4.27;;;3.87;;
438;SDS011;206;48.782;9.252;2022-10-26T10:07:29;10.73;;;3.33;;
438;SDS011;206;48.782;9.252;2022-10-26T10:09:39;3.30;;;2.50;;
438;SDS011;206;48.782;9.252;2022-10-26T10:12:05;7.30;;;2.90;;
438;SDS011;206;48.782;9.252;2022-10-26T10:14:53;10.57;;;3.60;;
438;SDS011;206;48.782;9.252;2022-10-26T10:17:21;8.13;;;3.57;;
438;SDS011;206;48.782;9.252;2022-10-26T10:19:48;7.53;;;3.00;;
438;SDS011;206;48.782;9.252;2022-10-26T10:24:40;10.03;;;3.70;;
438;SDS011;206;48.782;9.252;2022-10-26T10:29:42;19.23;;;5.13;;
438;SDS011;206;48.782;9.252;2022-10-26T10:32:17;12.90;;;4.87;;
438;SDS011;206;48.782;9.252;2022-10-26T10:34:45;8.90;;;3.40;;
438;SDS011;206;48.782;9.252;2022-10-26T10:37:36;10.43;;;4.53;;
438;SDS011;206;48.782;9.252;2022-10-26T10:40:16;8.70;;;4.40;;
438;SDS011;206;48.782;9.252;2022-10-26T10:42:47;20.47;;;5.40;;
438;SDS011;206;48.782;9.252;2022-10-26T10:45:22;5.17;;;3.23;;
438;SDS011;206;48.782;9.252;2022-10-26T10:50:28;11.80;;;4.00;;
438;SDS011;206;48.782;9.252;2022-10-26T10:53:11;7.57;;;2.13;;
438;SDS011;206;48.782;9.252;2022-10-26T11:01:21;6.20;;;3.10;;
438;SDS011;206;48.782;9.252;2022-10-26T11:06:18;6.80;;;2.93;;
438;SDS011;206;48.782;9.252;2022-10-26T11:08:47;4.70;;;2.47;;
438;SDS011;206;48.782;9.252;2022-10-26T11:16:38;7.70;;;3.03;;
438;SDS011;206;48.782;9.252;2022-10-26T11:19:23;6.03;;;2.73;;
438;SDS011;206;48.782;9.252;2022-10-26T11:21:59;4.30;;;2.40;;
438;SDS011;206;48.782;9.252;2022-10-26T11:26:59;7.20;;;2.80;;
438;SDS011;206;48.782;9.252;2022-10-26T11:29:42;6.90;;;3.00;;
438;SDS011;206;48.782;9.252;2022-10-26T11:32:20;5.63;;;2.60;;
438;SDS011;206;48.782;9.252;2022-10-26T11:34:59;8.30;;;2.10;;
438;SDS011;206;48.782;9.252;2022-10-26T11:40:18;9.23;;;3.70;;
438;SDS011;206;48.782;9.252;2022-10-26T11:43:07;4.03;;;3.10;;
438;SDS011;206;48.782;9.252;2022-10-26T11:49:03;7.97;;;3.50;;
438;SDS011;206;48.782;9.252;2022-10-26T11:54:41;7.57;;;3.20;;
438;SDS011;206;48.782;9.252;2022-10-26T11:57:20;7.17;;;2.73;;
438;SDS011;206;48.782;9.252;2022-10-26T11:59:49;4.63;;;2.10;;
438;SDS011;206;48.782;9.252;2022-10-26T12:02:18;4.10;;;2.20;;
438;SDS011;206;48.782;9.252;2022-10-26T12:04:48;3.80;;;2.87;;
438;SDS011;206;48.782;9.252;2022-10-26T12:07:34;5.70;;;2.07;;
438;SDS011;206;48.782;9.252;2022-10-26T12:10:03;6.67;;;2.43;;
438;SDS011;206;48.782;9.252;2022-10-26T12:15:18;4.80;;;2.00;;
438;SDS011;206;48.782;9.252;2022-10-26T12:18:13;3.50;;;2.23;;
438;SDS011;206;48.782;9.252;2022-10-26T12:20:51;6.30;;;1.90;;
438;SDS011;206;48.782;9.252;2022-10-26T12:23:26;9.13;;;2.53;;
438;SDS011;206;48.782;9.252;2022-10-26T12:34:12;4.73;;;2.73;;
438;SDS011;206;48.782;9.252;2022-10-26T12:52:48;4.80;;;2.47;;
438;SDS011;206;48.782;9.252;2022-10-26T13:00:41;5.57;;;2.87;;
438;SDS011;206;48.782;9.252;2022-10-26T13:03:20;8.60;;;2.50;;
438;SDS011;206;48.782;9.252;2022-10-26T13:08:54;4.80;;;2.87;;
438;SDS011;206;48.782;9.252;2022-10-26T13:11:34;5.30;;;2.07;;
438;SDS011;206;48.782;9.252;2022-10-26T13:14:07;3.20;;;2.10;;
438;SDS011;206;48.782;9.252;2022-10-26T13:16:43;5.03;;;2.30;;
438;SDS011;206;48.782;9.252;2022-10-26T13:22:12;13.50;;;2.73;;
438;SDS011;206;48.782;9.252;2022-10-26T13:24:42;4.47;;;2.03;;
438;SDS011;206;48.782;9.252;2022-10-26T13:32:27;3.93;;;2.77;;
438;SDS011;206;48.782;9.252;2022-10-26T13:34:59;4.87;;;2.73;;
438;SDS011;206;48.782;9.252;2022-10-26T13:37:26;6.30;;;2.47;;
438;SDS011;206;48.782;9.252;2022-10-26T13:39:55;10.37;;;2.50;;
438;SDS011;206;48.782;9.252;2022-10-26T13:42:27;8.53;;;3.20;;
438;SDS011;206;48.782;9.252;2022-10-26T13:47:37;5.00;;;2.87;;
438;SDS011;206;48.782;9.252;2022-10-26T13:50:18;4.67;;;3.47;;
438;SDS011;206;48.782;9.252;2022-10-26T13:52:53;8.10;;;2.90;;
438;SDS011;206;48.782;9.252;2022-10-26T13:55:36;10.40;;;2.60;;
438;SDS011;206;48.782;9.252;2022-10-26T14:01:00;4.83;;;1.97;;
438;SDS011;206;48.782;9.252;2022-10-26T14:03:38;6.83;;;2.50;;
438;SDS011;206;48.782;9.252;2022-10-26T14:06:26;4.00;;;2.07;;
438;SDS011;206;48.782;9.252;2022-10-26T14:08:51;8.73;;;2.73;;
438;SDS011;206;48.782;9.252;2022-10-26T14:11:19;2.90;;;2.03;;
438;SDS011;206;48.782;9.252;2022-10-26T14:13:49;5.53;;;2.03;;
438;SDS011;206;48.782;9.252;2022-10-26T14:16:16;10.57;;;2.93;;
438;SDS011;206;48.782;9.252;2022-10-26T14:18:44;5.20;;;3.37;;
438;SDS011;206;48.782;9.252;2022-10-26T14:21:13;11.70;;;2.60;;
438;SDS011;206;48.782;9.252;2022-10-26T14:23:44;8.77;;;2.10;;
438;SDS011;206;48.782;9.252;2022-10-26T14:26:29;7.00;;;1.97;;
438;SDS011;206;48.782;9.252;2022-10-26T14:29:02;7.30;;;2.57;;
438;SDS011;206;48.782;9.252;2022-10-26T14:31:29;5.43;;;2.03;;
438;SDS011;206;48.782;9.252;2022-10-26T14:33:56;4.83;;;1.97;;
438;SDS011;206;48.782;9.252;2022-10-26T14:36:28;7.30;;;2.30;;
438;SDS011;206;48.782;9.252;2022-10-26T14:39:02;4.50;;;2.47;;
438;SDS011;206;48.782;9.252;2022-10-26T14:41:39;7.33;;;2.00;;
438;SDS011;206;48.782;9.252;2022-10-26T14:44:05;9.67;;;2.17;;
438;SDS011;206;48.782;9.252;2022-10-26T14:46:41;4.40;;;2.00;;
438;SDS011;206;48.782;9.252;2022-10-26T14:49:11;6.40;;;2.43;;
438;SDS011;206;48.782;9.252;2022-10-26T14:51:48;7.23;;;2.53;;
438;SDS011;206;48.782;9.252;2022-10-26T14:54:22;5.17;;;3.00;;
438;SDS011;206;48.782;9.252;2022-10-26T14:56:49;5.57;;;2.80;;
438;SDS011;206;48.782;9.252;2022-10-26T14:59:23;4.37;;;2.80;;
438;SDS011;206;48.782;9.252;2022-10-26T15:04:41;4.03;;;2.77;;
438;SDS011;206;48.782;9.252;2022-10-26T15:07:21;4.37;;;3.10;;
438;SDS011;206;48.782;9.252;2022-10-26T15:12:32;6.40;;;2.57;;
438;SDS011;206;48.782;9.252;2022-10-26T15:17:39;2.97;;;1.67;;
438;SDS011;206;48.782;9.252;2022-10-26T15:20:10;5.07;;;2.67;;
438;SDS011;206;48.782;9.252;2022-10-26T15:22:44;7.80;;;2.90;;
438;SDS011;206;48.782;9.252;2022-10-26T15:25:19;4.87;;;1.83;;
438;SDS011;206;48.782;9.252;2022-10-26T15:27:49;4.43;;;2.13;;
438;SDS011;206;48.782;9.252;2022-10-26T15:30:19;7.60;;;2.57;;
438;SDS011;206;48.782;9.252;2022-10-26T15:32:47;4.60;;;2.20;;
438;SDS011;206;48.782;9.252;2022-10-26T15:37:39;3.83;;;2.37;;
438;SDS011;206;48.782;9.252;2022-10-26T15:40:05;8.07;;;2.60;;
438;SDS011;206;48.782;9.252;2022-10-26T15:42:31;5.60;;;1.90;;
438;SDS011;206;48.782;9.252;2022-10-26T15:45:02;6.00;;;2.17;;
438;SDS011;206;48.782;9.252;2022-10-26T15:47:30;5.00;;;2.10;;
438;SDS011;206;48.782;9.252;2022-10-26T15:49:57;4.67;;;2.50;;
438;SDS011;206;48.782;9.252;2022-10-26T15:52:23;3.50;;;2.40;;
438;SDS011;206;48.782;9.252;2022-10-26T15:54:49;5.43;;;2.27;;
438;SDS011;206;48.782;9.252;2022-10-26T15:57:15;4.77;;;2.20;;
438;SDS011;206;48.782;9.252;2022-10-26T15:59:40;4.97;;;2.20;;
438;SDS011;206;48.782;9.252;2022-10-26T16:02:13;7.83;;;2.90;;
438;SDS011;206;48.782;9.252;2022-10-26T16:04:39;4.10;;;2.07;;
438;SDS011;206;48.782;9.252;2022-10-26T16:07:05;7.57;;;2.93;;
438;SDS011;206;48.782;9.252;2022-10-26T16:09:35;7.73;;;2.83;;
438;SDS011;206;48.782;9.252;2022-10-26T16:12:01;3.60;;;2.27;;
438;SDS011;206;48.782;9.252;2022-10-26T16:14:26;3.50;;;2.10;;
438;SDS011;206;48.782;9.252;2022-10-26T16:16:52;8.60;;;5.17;;
438;SDS011;206;48.782;9.252;2022-10-26T16:19:18;30.97;;;20.27;;
438;SDS011;206;48.782;9.252;2022-10-26T16:21:44;46.00;;;30.90;;
438;SDS011;206;48.782;9.252;2022-10-26T16:24:09;49.67;;;35.40;;
438;SDS011;206;48.782;9.252;2022-10-26T16:26:35;52.63;;;34.00;;
438;SDS011;206;48.782;9.252;2022-10-26T16:29:00;38.87;;;26.20;;
438;SDS011;206;48.782;9.252;2022-10-26T16:31:26;45.57;;;28.17;;
438;SDS011;206;48.782;9.252;2022-10-26T16:33:52;39.00;;;22.97;;
438;SDS011;206;48.782;9.252;2022-10-26T16:36:17;31.60;;;21.27;;
438;SDS011;206;48.782;9.252;2022-10-26T16:38:43;31.10;;;19.00;;
438;SDS011;206;48.782;9.252;2022-10-26T16:41:09;30.87;;;19.20;;
438;SDS011;206;48.782;9.252;2022-10-26T16:43:38;22.40;;;14.60;;
438;SDS011;206;48.782;9.252;2022-10-26T16:46:09;17.00;;;12.60;;
438;SDS011;206;48.782;9.252;2022-10-26T16:48:37;14.23;;;9.80;;
438;SDS011;206;48.782;9.252;2022-10-26T16:53:36;12.60;;;9.17;;
438;SDS011;206;48.782;9.252;2022-10-26T16:56:12;14.93;;;9.27;;
438;SDS011;206;48.782;9.252;2022-10-26T16:58:42;18.90;;;10.43;;
438;SDS011;206;48.782;9.252;2022-10-26T17:01:09;14.83;;;8.33;;
438;SDS011;206;48.782;9.252;2022-10-26T17:03:37;12.07;;;7.43;;
438;SDS011;206;48.782;9.252;2022-10-26T17:06:04;11.77;;;7.47;;
438;SDS011;206;48.782;9.252;2022-10-26T17:08:31;11.70;;;6.33;;
438;SDS011;206;48.782;9.252;2022-10-26T17:11:02;12.40;;;5.70;;
438;SDS011;206;48.782;9.252;2022-10-26T17:13:28;13.27;;;6.50;;
438;SDS011;206;48.782;9.252;2022-10-26T17:15:59;7.30;;;6.00;;
438;SDS011;206;48.782;9.252;2022-10-26T17:18:29;10.90;;;6.00;;
438;SDS011;206;48.782;9.252;2022-10-26T17:20:54;8.40;;;4.80;;
438;SDS011;206;48.782;9.252;2022-10-26T17:23:20;9.87;;;6.37;;
438;SDS011;206;48.782;9.252;2022-10-26T17:25:46;5.13;;;4.63;;
438;SDS011;206;48.782;9.252;2022-10-26T17:28:11;8.03;;;4.30;;
438;SDS011;206;48.782;9.252;2022-10-26T17:30:37;10.10;;;4.97;;
438;SDS011;206;48.782;9.252;2022-10-26T17:33:03;10.13;;;5.33;;
438;SDS011;206;48.782;9.252;2022-10-26T17:35:30;17.53;;;10.33;;
438;SDS011;206;48.782;9.252;2022-10-26T17:37:57;14.90;;;9.90;;
438;SDS011;206;48.782;9.252;2022-10-26T17:40:22;17.03;;;10.97;;
438;SDS011;206;48.782;9.252;2022-10-26T17:42:48;8.90;;;7.97;;
438;SDS011;206;48.782;9.252;2022-10-26T17:45:13;7.90;;;6.60;;
438;SDS011;206;48.782;9.252;2022-10-26T17:47:39;8.93;;;5.50;;
438;SDS011;206;48.782;9.252;2022-10-26T17:50:05;6.93;;;4.40;;
438;SDS011;206;48.782;9.252;2022-10-26T17:52:31;6.43;;;3.27;;
438;SDS011;206;48.782;9.252;2022-10-26T17:54:57;4.63;;;2.90;;
438;SDS011;206;48.782;9.252;2022-10-26T17:57:22;4.73;;;3.40;;
438;SDS011;206;48.782;9.252;2022-10-26T17:59:48;13.00;;;4.30;;
438;SDS011;206;48.782;9.252;2022-10-26T18:02:14;9.03;;;4.20;;
438;SDS011;206;48.782;9.252;2022-10-26T18:04:39;10.43;;;4.70;;
438;SDS011;206;48.782;9.252;2022-10-26T18:07:05;10.37;;;4.90;;
438;SDS011;206;48.782;9.252;2022-10-26T18:09:30;10.43;;;5.47;;
438;SDS011;206;48.782;9.252;2022-10-26T18:11:56;9.53;;;4.53;;
438;SDS011;206;48.782;9.252;2022-10-26T18:14:22;11.93;;;4.33;;
438;SDS011;206;48.782;9.252;2022-10-26T18:16:47;6.17;;;5.03;;
438;SDS011;206;48.782;9.252;2022-10-26T18:19:13;6.30;;;3.87;;
438;SDS011;206;48.782;9.252;2022-10-26T18:21:39;5.97;;;3.53;;
438;SDS011;206;48.782;9.252;2022-10-26T18:24:05;5.93;;;4.40;;
438;SDS011;206;48.782;9.252;2022-10-26T18:26:32;10.10;;;5.00;;
438;SDS011;206;48.782;9.252;2022-10-26T18:28:58;13.43;;;5.10;;
438;SDS011;206;48.782;9.252;2022-10-26T18:31:25;15.30;;;6.50;;
438;SDS011;206;48.782;9.252;2022-10-26T18:33:56;11.20;;;6.30;;
438;SDS011;206;48.782;9.252;2022-10-26T18:36:23;12.50;;;5.93;;
438;SDS011;206;48.782;9.252;2022-10-26T18:38:49;7.50;;;4.60;;
438;SDS011;206;48.782;9.252;2022-10-26T18:41:15;8.67;;;4.50;;
438;SDS011;206;48.782;9.252;2022-10-26T18:43:46;7.43;;;3.90;;